My Meet Scores
Top100 | Top Teams | Upcoming Meets | Completed Meets | Latest | Add Scores | Help| Bookmark and Share

Elgin Gymnastics Invitational - MyMeetScores.com
Elgin Gymnastics Invitational
Start End Host Meet Website
2009-02-202009-02-22 Spring Hill Gymnastics Inc.Click here
Meet Scores Level: 6 Division: Lvl6:11yrs.
Team Scores  Show Personal Bests    All Scores  Level:   4,  5,  6,  7,
#Name Team Session Level DivisionVaultBarsBeamFloorAA
1Panton, MikaylaGainers Gymnastics 6 Lvl6:11yrs.9.175 19.400 19.400 19.000 336.975 1
2Rumel, KatePremier Gymnastics Academy West 6 Lvl6:11yrs.8.850 38.775 59.275 29.025 135.925 2
3Edmunds, MelissaEnergym Gymnastics 6 Lvl6:11yrs.8.800 68.800 49.000 88.750 835.350 3
4Morreale, AlisonEnergym Gymnastics 6 Lvl6:11yrs.8.900 28.150 109.175 38.950 435.175 4
4Egan, PaigeOak Lawn Pirouette's Gymnastics 6 Lvl6:11yrs.8.450 169.100 39.025 78.600 1135.175 5
6Bohnstedt, AlexMaximum Gymnastics Training Center 6 Lvl6:11yrs.8.775 99.200 28.900 118.200 1735.075 6
7Smith, EmaleeSpring Hill Gymnastics Inc. 6 Lvl6:11yrs.8.850 47.800 169.100 48.800 734.550 7
8Jones, JadaU.S. Gymnastic Training Center 6 Lvl6:11yrs.8.775 107.750 178.950 98.750 934.225 8
9Estvander, AlyssaArena Gymnastics 6 Lvl6:11yrs.8.725 118.500 68.900 128.050 1934.175 9
10Vargas, DanielleGym Kinetics Sports Complex 6 Lvl6:11yrs.8.800 78.200 98.700 148.400 1534.100 10
11Amann, CarolinePremier Gymnastics Academy West 6 Lvl6:11yrs.8.825 57.550 199.050 58.600 1234.025 11
11Burright, LeanzaEnergym Gymnastics 6 Lvl6:11yrs.8.800 87.450 208.750 139.025 234.025 12
13Penteris, NinaArena Gymnastics 6 Lvl6:11yrs.8.500 148.050 138.925 108.400 1633.875 13
14Fye, AlexisU.S. Gymnastic Training Center 6 Lvl6:11yrs.8.600 127.850 158.500 168.900 633.850 14
15Skowyra, NinaU.S. Gymnastic Training Center 6 Lvl6:11yrs.8.425 187.750 188.500 178.950 533.625 15
16Gustafson, BridgetPremier Gymnastics Academy West 6 Lvl6:11yrs.8.400 208.300 89.050 67.750 2133.500 16
17Lajewski, KarlieHuntley Unlimited Gymnastics School 6 Lvl6:11yrs.8.525 138.350 78.050 208.450 1433.375 17
18Mc Nicholas, RebeccaOak Lawn Pirouette's Gymnastics 6 Lvl6:11yrs.8.500 158.000 148.000 218.700 1033.200 18
19Reagan, ShaninGymkhana Gymnastics Club and Dance 6 Lvl6:11yrs.8.350 218.100 128.450 188.200 1833.100 19
20Sprengel, AllisonGymkhana Gymnastics Club and Dance 6 Lvl6:11yrs.8.425 198.150 118.700 157.725 2233.000 20
21Black, JessieU.S. Gymnastic Training Center 6 Lvl6:11yrs.8.350 226.300 228.200 198.600 1331.450 21
22Kelly, EmilyIllinois Gymnastics Institute Inc. 6 Lvl6:11yrs.8.450 177.250 217.250 227.850 2030.800 22